Time;durP1;ratioP1;P1;durP2;ratioP2;P2;SDS_P1;SDS_P2;PMS_P1;PMS_P2;Temp;Humidity;BMP_temperature;BMP_pressure;BME280_temperature;BME280_humidity;BME280_pressure;Samples;Min_cycle;Max_cycle;Signal;HPM_P1;HPM_P2
2022/11/28 00:01:32;;;;;;;13.67;5.73;;;6.00;99.90;;;;;;5056529;28;20444;-55
2022/11/28 00:04:02;;;;;;;13.27;6.80;;;6.00;99.90;;;;;;5055747;28;20454;-61
2022/11/28 00:06:30;;;;;;;16.10;7.30;;;6.00;99.90;;;;;;5055366;28;20471;-58
2022/11/28 00:09:00;;;;;;;12.37;6.07;;;5.90;99.90;;;;;;5055766;28;20503;-56
2022/11/28 00:11:27;;;;;;;12.80;5.23;;;5.90;99.90;;;;;;5048401;28;20471;-61
2022/11/28 00:13:55;;;;;;;11.80;6.10;;;5.90;99.90;;;;;;5053137;28;20463;-54
2022/11/28 00:16:23;;;;;;;9.87;6.67;;;5.90;99.90;;;;;;5055820;28;20444;-56
2022/11/28 00:18:51;;;;;;;11.63;5.67;;;5.90;99.90;;;;;;5055947;28;20444;-57
2022/11/28 00:21:22;;;;;;;7.90;5.80;;;5.90;99.90;;;;;;5056275;28;20475;-58
2022/11/28 00:23:49;;;;;;;10.57;6.20;;;5.90;99.90;;;;;;5056813;28;20424;-58
2022/11/28 00:26:25;;;;;;;13.17;7.30;;;5.90;99.90;;;;;;5056013;28;20444;-53
2022/11/28 00:28:52;;;;;;;15.33;7.80;;;5.90;99.90;;;;;;5056186;28;20455;-54
2022/11/28 00:31:21;;;;;;;10.60;6.97;;;5.90;99.90;;;;;;5055851;28;20498;-56
2022/11/28 00:33:48;;;;;;;8.60;6.10;;;5.90;99.90;;;;;;5056017;28;20440;-56
2022/11/28 00:36:16;;;;;;;11.83;6.47;;;5.90;99.90;;;;;;5056689;28;20460;-54
2022/11/28 00:38:43;;;;;;;11.93;7.00;;;5.90;99.90;;;;;;5051691;28;20448;-62
2022/11/28 00:41:12;;;;;;;11.57;6.40;;;5.90;99.90;;;;;;5049258;28;20436;-58
2022/11/28 00:43:45;;;;;;;8.47;6.50;;;5.90;99.90;;;;;;5056875;28;20437;-48
2022/11/28 00:46:13;;;;;;;11.33;6.80;;;5.90;99.90;;;;;;5056735;28;20448;-53
2022/11/28 00:48:41;;;;;;;11.63;7.53;;;5.90;99.90;;;;;;5056716;28;20443;-57
2022/11/28 00:51:10;;;;;;;14.07;7.30;;;5.90;99.90;;;;;;5056421;28;20425;-57
2022/11/28 00:53:39;;;;;;;12.90;7.90;;;5.90;99.90;;;;;;5056926;28;20428;-60
2022/11/28 00:56:07;;;;;;;14.07;7.70;;;5.90;99.90;;;;;;5056761;28;20468;-51
2022/11/28 00:58:34;;;;;;;18.50;8.00;;;5.80;99.90;;;;;;5057012;28;20479;-60
2022/11/28 01:01:07;;;;;;;24.37;9.50;;;5.80;99.90;;;;;;5056753;28;20468;-54
2022/11/28 01:03:34;;;;;;;12.30;7.87;;;5.80;99.90;;;;;;5056350;28;20444;-59
2022/11/28 01:06:04;;;;;;;14.70;7.57;;;5.70;99.90;;;;;;5056463;28;20451;-62
2022/11/28 01:08:32;;;;;;;14.40;8.87;;;5.70;99.90;;;;;;5056403;28;20538;-61
2022/11/28 01:10:59;;;;;;;11.73;7.00;;;5.70;99.90;;;;;;5056064;28;20452;-57
2022/11/28 01:13:25;;;;;;;9.73;6.77;;;5.70;99.90;;;;;;5056963;28;20436;-57
2022/11/28 01:15:52;;;;;;;13.57;8.00;;;5.70;99.90;;;;;;5056841;28;20595;-58
2022/11/28 01:18:21;;;;;;;17.40;8.87;;;5.80;99.90;;;;;;5056351;28;20432;-53
2022/11/28 01:20:48;;;;;;;11.30;8.67;;;5.80;99.90;;;;;;5056768;28;20484;-57
2022/11/28 01:23:17;;;;;;;14.07;7.80;;;5.80;99.90;;;;;;5055042;28;20479;-55
2022/11/28 01:25:44;;;;;;;12.67;9.30;;;5.70;99.90;;;;;;5055372;28;20509;-60
2022/11/28 01:28:11;;;;;;;13.27;8.63;;;5.70;99.90;;;;;;5055941;28;20428;-52
2022/11/28 01:30:38;;;;;;;12.17;8.03;;;5.70;99.90;;;;;;5055516;28;20491;-53
2022/11/28 01:33:05;;;;;;;13.63;8.00;;;5.70;99.90;;;;;;5054957;28;20452;-53
2022/11/28 01:35:33;;;;;;;16.23;8.23;;;5.70;99.90;;;;;;5054917;28;20469;-59
2022/11/28 01:38:00;;;;;;;13.17;7.50;;;5.60;99.90;;;;;;5055569;28;20451;-52
2022/11/28 01:40:27;;;;;;;16.30;8.40;;;5.60;99.90;;;;;;5058449;28;20476;-56
2022/11/28 01:42:54;;;;;;;10.80;7.13;;;5.60;99.90;;;;;;5059010;28;20458;-55
2022/11/28 01:45:23;;;;;;;18.47;7.37;;;5.60;99.90;;;;;;5046567;28;20440;-57
2022/11/28 01:47:56;;;;;;;15.30;8.70;;;5.60;99.90;;;;;;5058118;28;20468;-51
2022/11/28 01:50:28;;;;;;;18.13;7.87;;;5.60;99.90;;;;;;5058498;28;20420;-58
2022/11/28 01:53:00;;;;;;;16.50;6.90;;;5.50;99.90;;;;;;5058368;28;20435;-61
2022/11/28 01:55:31;;;;;;;13.60;7.13;;;5.50;99.90;;;;;;5058422;28;20459;-59
2022/11/28 01:58:00;;;;;;;11.43;6.97;;;5.50;99.90;;;;;;5058378;28;20435;-60
2022/11/28 02:00:28;;;;;;;11.50;7.67;;;5.50;99.90;;;;;;5057700;28;20494;-55
2022/11/28 02:03:00;;;;;;;13.47;7.67;;;5.50;99.90;;;;;;5048244;28;20523;-62
2022/11/28 02:05:27;;;;;;;13.30;7.87;;;5.50;99.90;;;;;;5052044;28;20433;-60
2022/11/28 02:07:55;;;;;;;14.27;8.47;;;5.50;99.90;;;;;;5052236;28;20445;-58
2022/11/28 02:10:25;;;;;;;14.17;7.33;;;5.60;99.90;;;;;;5057849;28;20447;-58
2022/11/28 02:13:23;;;;;;;14.30;7.67;;;5.50;99.90;;;;;;5047863;28;20460;-59
2022/11/28 02:16:11;;;;;;;16.33;7.20;;;5.50;99.90;;;;;;5057656;28;20425;-56
2022/11/28 02:18:53;;;;;;;9.30;6.60;;;5.50;99.90;;;;;;5048487;28;20503;-57
2022/11/28 02:21:40;;;;;;;13.77;8.40;;;5.50;99.90;;;;;;5058253;28;20469;-57
2022/11/28 02:24:44;;;;;;;11.73;6.80;;;5.50;99.90;;;;;;5047709;28;20456;-58
2022/11/28 02:27:37;;;;;;;10.73;6.80;;;5.50;99.90;;;;;;5058394;28;20439;-60
2022/11/28 02:30:27;;;;;;;16.03;7.90;;;5.40;99.90;;;;;;5057973;28;20425;-59
2022/11/28 02:33:17;;;;;;;16.90;9.10;;;5.40;99.90;;;;;;5045449;28;20425;-59
2022/11/28 02:35:55;;;;;;;16.83;7.47;;;5.40;99.90;;;;;;5057752;28;20424;-59
2022/11/28 02:38:29;;;;;;;11.97;7.10;;;5.50;99.90;;;;;;5057144;28;20444;-59
2022/11/28 02:41:02;;;;;;;13.07;6.50;;;5.40;99.90;;;;;;5058386;28;20464;-58
2022/11/28 02:43:34;;;;;;;13.30;7.17;;;5.40;99.90;;;;;;5057636;28;20460;-56
2022/11/28 02:46:10;;;;;;;14.93;6.40;;;5.40;99.90;;;;;;5056944;28;20439;-60
2022/11/28 02:48:44;;;;;;;13.47;6.67;;;5.40;99.90;;;;;;5045150;28;20504;-52
2022/11/28 02:51:16;;;;;;;13.40;6.40;;;5.40;99.90;;;;;;5057144;28;20464;-58
2022/11/28 02:53:45;;;;;;;11.23;7.90;;;5.40;99.90;;;;;;5053836;28;20424;-58
2022/11/28 02:56:13;;;;;;;11.47;7.40;;;5.40;99.90;;;;;;5050837;28;20472;-53
2022/11/28 02:58:40;;;;;;;11.37;6.37;;;5.40;99.90;;;;;;5046855;28;20455;-59
2022/11/28 03:01:12;;;;;;;10.57;6.77;;;5.40;99.90;;;;;;5056765;28;20518;-58
2022/11/28 03:04:14;;;;;;;12.43;6.53;;;5.40;99.90;;;;;;5058557;28;20439;-59
2022/11/28 03:06:53;;;;;;;14.63;6.93;;;5.40;99.90;;;;;;5027596;28;20466;-59
2022/11/28 03:09:50;;;;;;;12.23;6.70;;;5.40;99.90;;;;;;5057906;28;20451;-56
2022/11/28 03:12:28;;;;;;;9.20;6.33;;;5.30;99.90;;;;;;5056751;28;20416;-57
2022/11/28 03:14:56;;;;;;;17.30;7.23;;;5.30;99.90;;;;;;5054633;28;20468;-59
2022/11/28 03:17:32;;;;;;;10.23;7.33;;;5.30;99.90;;;;;;5047797;28;20461;-60
2022/11/28 03:20:16;;;;;;;12.30;6.53;;;5.20;99.90;;;;;;5056491;28;20543;-59
2022/11/28 03:23:01;;;;;;;13.60;8.47;;;5.30;99.90;;;;;;5056039;28;20441;-60
2022/11/28 03:25:34;;;;;;;15.87;7.43;;;5.30;99.90;;;;;;5053958;28;20408;-60
2022/11/28 03:28:07;;;;;;;14.77;6.80;;;5.30;99.90;;;;;;5048197;28;20466;-60
2022/11/28 03:30:41;;;;;;;14.87;7.93;;;5.20;99.90;;;;;;5057505;28;20421;-59
2022/11/28 03:33:09;;;;;;;15.33;7.00;;;5.30;99.90;;;;;;5056406;28;20460;-60
2022/11/28 03:35:42;;;;;;;19.67;8.30;;;5.30;99.90;;;;;;5056221;28;20449;-58
2022/11/28 03:38:16;;;;;;;11.50;7.30;;;5.30;99.90;;;;;;5055891;28;20433;-57
2022/11/28 03:40:46;;;;;;;14.00;8.47;;;5.20;99.90;;;;;;5055380;28;20464;-59
2022/11/28 03:43:20;;;;;;;13.50;6.77;;;5.30;99.90;;;;;;5056394;28;20452;-56
2022/11/28 03:45:55;;;;;;;12.90;7.70;;;5.20;99.90;;;;;;5056371;28;20468;-60
2022/11/28 03:48:26;;;;;;;13.87;8.30;;;5.20;99.90;;;;;;5056140;28;20451;-60
2022/11/28 03:50:57;;;;;;;10.90;6.60;;;5.20;99.90;;;;;;5047555;28;20518;-60
2022/11/28 03:53:36;;;;;;;16.73;7.53;;;5.20;99.90;;;;;;5053386;28;20404;-55
2022/11/28 03:56:09;;;;;;;13.10;6.47;;;5.20;99.90;;;;;;5056305;28;20443;-60
2022/11/28 03:58:39;;;;;;;16.33;7.47;;;5.20;99.90;;;;;;5054945;28;20447;-61
2022/11/28 04:01:37;;;;;;;12.20;7.83;;;5.20;99.90;;;;;;5056530;28;20472;-59
2022/11/28 04:04:14;;;;;;;12.87;7.60;;;5.20;99.90;;;;;;5044428;28;20774;-59
2022/11/28 04:06:53;;;;;;;15.60;7.27;;;5.20;99.90;;;;;;5056835;28;20458;-59
2022/11/28 04:09:31;;;;;;;15.53;7.20;;;5.20;99.90;;;;;;5053834;28;20468;-59
2022/11/28 04:12:04;;;;;;;11.13;6.60;;;5.20;99.90;;;;;;5056673;28;20429;-55
2022/11/28 04:14:36;;;;;;;13.03;7.07;;;5.20;99.90;;;;;;5056668;28;20432;-56
2022/11/28 04:17:09;;;;;;;13.10;6.83;;;5.20;99.90;;;;;;5057155;28;20461;-60
2022/11/28 04:19:41;;;;;;;11.03;6.27;;;5.20;99.90;;;;;;5056208;28;20428;-60
2022/11/28 04:22:14;;;;;;;12.00;6.90;;;5.20;99.90;;;;;;5055904;28;20480;-57
2022/11/28 04:24:47;;;;;;;12.33;6.33;;;5.10;99.90;;;;;;5056298;28;20425;-54
2022/11/28 04:27:18;;;;;;;13.00;7.60;;;5.10;99.90;;;;;;5056233;28;20436;-57
2022/11/28 04:29:49;;;;;;;12.47;6.40;;;5.20;99.90;;;;;;5056751;28;20502;-61
2022/11/28 04:32:19;;;;;;;13.40;6.97;;;5.20;99.90;;;;;;5055607;28;20796;-52
2022/11/28 04:34:49;;;;;;;13.80;6.90;;;5.20;99.90;;;;;;5055493;28;20527;-59
2022/11/28 04:37:21;;;;;;;14.17;8.27;;;5.10;99.90;;;;;;5056370;28;20445;-60
2022/11/28 04:39:52;;;;;;;13.03;7.87;;;5.10;99.90;;;;;;5056244;28;20436;-60
2022/11/28 04:42:23;;;;;;;19.23;10.27;;;5.10;99.90;;;;;;5056927;28;20479;-59
2022/11/28 04:44:55;;;;;;;13.83;6.93;;;5.10;99.90;;;;;;5056909;28;20429;-59
2022/11/28 04:47:23;;;;;;;15.83;9.10;;;5.10;99.90;;;;;;5056848;28;20486;-57
2022/11/28 04:49:50;;;;;;;16.40;10.30;;;5.10;99.90;;;;;;5055445;28;20448;-59
2022/11/28 04:52:22;;;;;;;14.30;7.57;;;5.10;99.90;;;;;;5056175;28;20471;-60
2022/11/28 04:54:57;;;;;;;14.80;7.03;;;5.10;99.90;;;;;;5055923;28;20425;-58
2022/11/28 04:57:30;;;;;;;14.93;6.60;;;5.20;99.90;;;;;;5056613;28;20436;-59
2022/11/28 04:59:58;;;;;;;15.53;6.20;;;5.10;99.90;;;;;;5055937;28;20428;-59
2022/11/28 05:02:29;;;;;;;12.00;7.30;;;5.20;99.90;;;;;;5056650;28;20487;-58
2022/11/28 05:04:57;;;;;;;11.80;6.83;;;5.20;99.90;;;;;;5055850;28;20464;-58
2022/11/28 05:07:24;;;;;;;12.60;6.93;;;5.20;99.90;;;;;;5048443;28;20455;-61
2022/11/28 05:09:54;;;;;;;11.10;6.83;;;5.20;99.90;;;;;;5053763;28;20471;-58
2022/11/28 05:12:21;;;;;;;14.60;7.03;;;5.20;99.90;;;;;;5043353;28;20474;-59
2022/11/28 05:14:48;;;;;;;16.70;7.57;;;5.20;99.90;;;;;;5058780;28;20448;-57
2022/11/28 05:17:18;;;;;;;15.83;7.40;;;5.20;99.90;;;;;;5059122;28;20474;-59
2022/11/28 05:19:47;;;;;;;11.07;7.03;;;5.30;99.90;;;;;;5059253;28;20455;-58
2022/11/28 05:22:14;;;;;;;13.63;8.13;;;5.30;99.90;;;;;;5058405;28;20486;-55
2022/11/28 05:24:41;;;;;;;11.67;5.83;;;5.30;99.90;;;;;;5058533;28;20451;-60
2022/11/28 05:27:10;;;;;;;17.70;7.50;;;5.30;99.90;;;;;;5059236;28;20444;-58
2022/11/28 05:29:37;;;;;;;10.97;6.00;;;5.30;99.90;;;;;;5059303;28;20478;-60
2022/11/28 05:32:04;;;;;;;9.77;6.67;;;5.30;99.90;;;;;;5059219;28;20428;-61
2022/11/28 05:34:31;;;;;;;11.77;6.77;;;5.40;99.90;;;;;;5057917;28;20542;-59
2022/11/28 05:36:58;;;;;;;14.77;8.60;;;5.40;99.90;;;;;;5050266;28;20462;-59
2022/11/28 05:39:25;;;;;;;16.47;9.23;;;5.40;99.90;;;;;;5051844;28;20465;-60
2022/11/28 05:41:54;;;;;;;9.67;6.90;;;5.40;99.90;;;;;;5053363;28;20571;-58
2022/11/28 05:44:22;;;;;;;15.63;7.60;;;5.40;99.90;;;;;;5059280;28;20515;-57
2022/11/28 05:46:49;;;;;;;13.20;7.00;;;5.40;99.90;;;;;;5058283;28;20436;-58
2022/11/28 05:49:20;;;;;;;17.83;8.23;;;5.40;99.90;;;;;;5058843;28;20452;-58
2022/11/28 05:51:49;;;;;;;12.20;6.80;;;5.40;99.90;;;;;;5058866;28;20428;-56
2022/11/28 05:54:16;;;;;;;13.00;7.07;;;5.40;99.90;;;;;;5059077;28;20482;-58
2022/11/28 05:56:43;;;;;;;13.70;6.40;;;5.40;99.90;;;;;;5057710;28;20428;-59
2022/11/28 05:59:10;;;;;;;11.87;6.30;;;5.50;99.90;;;;;;5056732;28;20454;-60
2022/11/28 06:01:41;;;;;;;12.93;6.97;;;5.50;99.90;;;;;;5048393;28;20476;-59
2022/11/28 06:04:08;;;;;;;18.37;7.70;;;5.50;99.90;;;;;;5058514;28;20416;-55
2022/11/28 06:06:37;;;;;;;15.20;7.90;;;5.50;99.90;;;;;;5059067;28;20456;-59
2022/11/28 06:09:09;;;;;;;14.13;8.40;;;5.40;99.90;;;;;;5058126;28;20454;-58
2022/11/28 06:11:41;;;;;;;11.90;5.80;;;5.40;99.90;;;;;;5058170;28;20455;-53
2022/11/28 06:14:13;;;;;;;21.03;9.60;;;5.30;99.90;;;;;;5058321;28;20425;-60
2022/11/28 06:17:05;;;;;;;14.13;6.70;;;5.40;99.90;;;;;;5058609;28;20439;-57
2022/11/28 06:19:34;;;;;;;16.40;7.83;;;5.30;99.90;;;;;;5058555;28;20456;-62
2022/11/28 06:22:04;;;;;;;18.77;7.47;;;5.30;99.90;;;;;;5057799;28;20482;-54
2022/11/28 06:24:33;;;;;;;15.90;9.33;;;5.40;99.90;;;;;;5058401;28;20464;-60
2022/11/28 06:27:00;;;;;;;14.80;7.40;;;5.30;99.90;;;;;;5057984;28;20897;-59
2022/11/28 06:29:31;;;;;;;21.43;8.90;;;5.30;99.90;;;;;;5058000;28;20451;-58
2022/11/28 06:32:05;;;;;;;13.10;6.93;;;5.30;99.90;;;;;;5058157;28;20480;-62
2022/11/28 06:34:33;;;;;;;16.90;7.87;;;5.30;99.90;;;;;;5059363;28;20429;-58
2022/11/28 06:37:00;;;;;;;19.30;8.70;;;5.30;99.90;;;;;;5058666;28;20452;-61
2022/11/28 06:39:27;;;;;;;16.13;9.10;;;5.30;99.90;;;;;;5058868;28;20444;-65
2022/11/28 06:41:54;;;;;;;17.40;7.90;;;5.30;99.90;;;;;;5059361;28;20574;-56
2022/11/28 06:44:20;;;;;;;12.63;7.43;;;5.30;99.90;;;;;;5059131;28;20432;-63
2022/11/28 06:46:49;;;;;;;15.47;7.47;;;5.30;99.90;;;;;;5058946;28;20447;-54
2022/11/28 06:49:18;;;;;;;18.33;9.43;;;5.30;99.90;;;;;;5059113;28;20455;-55
2022/11/28 06:51:46;;;;;;;16.97;9.60;;;5.20;99.90;;;;;;5059542;28;20428;-61
2022/11/28 06:54:13;;;;;;;19.73;10.00;;;5.20;99.90;;;;;;5058445;28;20462;-58
2022/11/28 06:56:45;;;;;;;15.77;8.20;;;5.20;99.90;;;;;;5058097;28;20468;-58
2022/11/28 06:59:12;;;;;;;18.50;9.60;;;5.20;99.90;;;;;;5058503;28;20413;-61
2022/11/28 07:01:39;;;;;;;13.30;7.90;;;5.20;99.90;;;;;;5058515;28;20492;-62
2022/11/28 07:04:06;;;;;;;18.30;8.60;;;5.20;99.90;;;;;;5058107;28;20437;-60
2022/11/28 07:06:34;;;;;;;19.37;9.07;;;5.20;99.90;;;;;;5057339;28;20448;-60
2022/11/28 07:09:01;;;;;;;19.90;9.57;;;5.20;99.90;;;;;;5056996;28;20491;-59
2022/11/28 07:11:31;;;;;;;18.70;9.03;;;5.20;99.90;;;;;;5057051;28;20440;-60
2022/11/28 07:14:00;;;;;;;16.63;8.80;;;5.20;99.90;;;;;;5058388;28;20424;-63
2022/11/28 07:16:29;;;;;;;19.77;8.37;;;5.20;99.90;;;;;;5058279;28;20471;-59
2022/11/28 07:18:57;;;;;;;12.77;7.80;;;5.20;99.90;;;;;;5058156;28;20440;-62
2022/11/28 07:21:24;;;;;;;15.83;8.30;;;5.20;99.90;;;;;;5058094;28;20492;-60
2022/11/28 07:23:55;;;;;;;21.53;9.80;;;5.20;99.90;;;;;;5058037;28;20432;-58
2022/11/28 07:26:22;;;;;;;12.63;7.23;;;5.20;99.90;;;;;;5057847;28;20488;-62
2022/11/28 07:28:50;;;;;;;24.40;9.80;;;5.20;99.90;;;;;;5057925;28;20432;-57
2022/11/28 07:31:21;;;;;;;18.10;8.83;;;5.20;99.90;;;;;;5057452;28;20498;-61
2022/11/28 07:33:50;;;;;;;13.90;9.33;;;5.20;99.90;;;;;;5057694;28;20472;-54
2022/11/28 07:36:20;;;;;;;16.93;8.20;;;5.20;99.90;;;;;;5057288;28;20451;-59
2022/11/28 07:38:51;;;;;;;19.07;9.33;;;5.20;99.90;;;;;;5057439;28;20459;-56
2022/11/28 07:41:20;;;;;;;14.67;9.27;;;5.20;99.90;;;;;;5056977;28;20991;-59
2022/11/28 07:43:49;;;;;;;15.60;8.83;;;5.20;99.90;;;;;;5056669;28;20485;-61
2022/11/28 07:46:18;;;;;;;18.33;10.33;;;5.20;99.90;;;;;;5057271;28;20462;-59
2022/11/28 07:48:46;;;;;;;15.60;7.40;;;5.20;99.90;;;;;;5056863;28;20440;-60
2022/11/28 07:51:15;;;;;;;19.03;8.47;;;5.20;99.90;;;;;;5057027;28;20428;-57
2022/11/28 07:53:43;;;;;;;17.27;9.50;;;5.20;99.90;;;;;;5056990;28;20483;-52
2022/11/28 07:56:13;;;;;;;16.30;7.90;;;5.30;99.90;;;;;;5056520;28;20444;-50
2022/11/28 07:58:43;;;;;;;17.97;8.17;;;5.30;99.90;;;;;;5056351;28;20443;-50
2022/11/28 08:01:12;;;;;;;19.03;9.23;;;5.40;99.90;;;;;;5055773;28;20432;-54
2022/11/28 08:03:39;;;;;;;17.07;9.90;;;5.50;99.90;;;;;;5055568;28;20428;-44
2022/11/28 08:06:07;;;;;;;16.17;8.57;;;5.60;99.90;;;;;;5056388;28;20476;-47
2022/11/28 08:08:37;;;;;;;11.97;7.77;;;5.60;99.90;;;;;;5056581;28;20459;-56
2022/11/28 08:11:06;;;;;;;15.80;7.87;;;5.70;99.90;;;;;;5055362;28;20479;-49
2022/11/28 08:13:33;;;;;;;28.30;8.20;;;5.70;99.90;;;;;;5056351;28;20470;-54
2022/11/28 08:16:06;;;;;;;20.03;9.07;;;5.80;99.90;;;;;;5055129;28;20455;-54
2022/11/28 08:18:33;;;;;;;19.83;10.00;;;5.80;99.90;;;;;;5055155;28;20555;-49
2022/11/28 08:21:06;;;;;;;22.30;10.80;;;5.90;99.90;;;;;;5043637;28;20502;-55
2022/11/28 08:23:33;;;;;;;17.93;8.83;;;6.00;99.90;;;;;;5055190;28;20469;-53
2022/11/28 08:26:01;;;;;;;14.27;8.87;;;6.00;99.90;;;;;;5054879;28;20500;-53
2022/11/28 08:28:28;;;;;;;22.13;9.87;;;6.00;99.90;;;;;;5055104;28;20531;-53
2022/11/28 08:30:55;;;;;;;16.10;8.63;;;6.10;99.90;;;;;;5054761;28;20468;-56
2022/11/28 08:33:27;;;;;;;15.27;8.70;;;6.10;99.90;;;;;;5054829;28;20487;-54
2022/11/28 08:35:54;;;;;;;19.63;8.40;;;6.20;99.90;;;;;;5054953;28;20459;-53
2022/11/28 08:38:21;;;;;;;12.33;7.33;;;6.30;99.90;;;;;;5055063;28;20429;-52
2022/11/28 08:40:50;;;;;;;21.50;10.53;;;6.30;99.90;;;;;;5054576;28;20452;-54
2022/11/28 08:43:17;;;;;;;18.53;9.30;;;6.20;99.90;;;;;;5054539;28;20496;-54
2022/11/28 08:45:45;;;;;;;13.70;7.90;;;6.20;99.90;;;;;;5055305;28;20472;-53
2022/11/28 08:48:15;;;;;;;20.77;8.87;;;6.20;99.90;;;;;;5054133;28;20452;-51
2022/11/28 08:50:47;;;;;;;12.47;8.20;;;6.30;99.90;;;;;;5054194;28;20465;-54
2022/11/28 08:53:17;;;;;;;21.97;8.97;;;6.40;99.90;;;;;;5054350;28;20468;-54
2022/11/28 08:55:45;;;;;;;16.03;9.07;;;6.40;99.90;;;;;;5053974;28;20460;-52
2022/11/28 08:58:12;;;;;;;20.57;8.60;;;6.50;99.90;;;;;;5054682;28;20447;-56
2022/11/28 09:00:45;;;;;;;17.87;9.33;;;6.50;99.90;;;;;;5054214;28;20436;-55
2022/11/28 09:03:14;;;;;;;18.80;10.47;;;6.60;99.90;;;;;;5053917;28;20475;-53
2022/11/28 09:05:42;;;;;;;16.00;8.63;;;6.70;99.90;;;;;;5054435;28;20440;-51
2022/11/28 09:08:12;;;;;;;20.63;9.90;;;6.80;99.90;;;;;;5054482;28;20486;-50
2022/11/28 09:10:40;;;;;;;16.33;8.30;;;6.90;99.90;;;;;;5054601;28;20445;-51
2022/11/28 09:13:07;;;;;;;19.10;9.87;;;7.00;99.90;;;;;;5054106;28;20455;-51
2022/11/28 09:15:34;;;;;;;26.03;9.27;;;7.00;99.90;;;;;;5054056;28;20444;-49
2022/11/28 09:18:01;;;;;;;19.23;9.57;;;7.10;99.90;;;;;;5054346;28;20455;-49
2022/11/28 09:20:28;;;;;;;14.90;8.27;;;7.10;99.90;;;;;;5054431;28;20460;-54
2022/11/28 09:22:55;;;;;;;12.87;8.43;;;7.10;99.90;;;;;;5053824;28;20479;-54
2022/11/28 09:25:23;;;;;;;14.33;7.80;;;7.00;99.90;;;;;;5054423;28;20502;-52
2022/11/28 09:27:50;;;;;;;20.40;8.27;;;7.00;99.90;;;;;;5056003;28;20479;-57
2022/11/28 09:30:21;;;;;;;19.23;8.60;;;7.00;99.90;;;;;;5055704;28;20463;-57
2022/11/28 09:32:49;;;;;;;17.77;9.70;;;7.00;99.90;;;;;;5054744;28;20490;-57
2022/11/28 09:35:16;;;;;;;18.10;9.33;;;6.90;99.90;;;;;;5054746;28;20451;-60
2022/11/28 09:37:45;;;;;;;15.47;8.03;;;6.90;99.90;;;;;;5053943;28;20445;-59
2022/11/28 09:40:17;;;;;;;19.37;10.10;;;6.90;99.90;;;;;;5053823;28;20486;-59
2022/11/28 09:42:46;;;;;;;20.33;9.87;;;6.90;99.90;;;;;;5053960;28;20537;-57
2022/11/28 09:45:17;;;;;;;25.40;12.30;;;6.80;99.90;;;;;;5054934;28;20506;-59
2022/11/28 09:47:49;;;;;;;22.63;8.93;;;6.80;99.90;;;;;;5053367;28;20452;-59
2022/11/28 09:50:20;;;;;;;16.90;9.67;;;6.80;99.90;;;;;;5053228;28;20467;-58
2022/11/28 09:52:57;;;;;;;25.67;8.47;;;6.80;99.90;;;;;;5055119;28;20417;-59
2022/11/28 09:55:33;;;;;;;16.23;8.13;;;6.70;99.90;;;;;;5053837;28;20487;-59
2022/11/28 09:58:13;;;;;;;19.50;8.90;;;6.60;99.90;;;;;;5045592;28;20468;-59
2022/11/28 10:00:46;;;;;;;15.80;8.33;;;6.70;99.90;;;;;;5055408;28;20496;-58
2022/11/28 10:03:35;;;;;;;17.20;8.77;;;6.70;99.90;;;;;;5057870;28;20490;-57
2022/11/28 10:06:12;;;;;;;25.67;8.23;;;6.70;99.90;;;;;;5059301;28;20443;-60
2022/11/28 10:08:49;;;;;;;18.03;9.67;;;6.80;99.90;;;;;;5058927;28;20424;-58
2022/11/28 10:11:26;;;;;;;18.37;9.00;;;6.80;99.90;;;;;;5059488;28;20459;-57
2022/11/28 10:14:04;;;;;;;18.30;8.60;;;6.90;99.90;;;;;;5058758;28;20746;-57
2022/11/28 10:16:41;;;;;;;20.77;9.83;;;7.00;99.90;;;;;;5059095;28;20475;-57
2022/11/28 10:19:14;;;;;;;19.37;8.10;;;7.00;99.90;;;;;;5059186;28;20411;-59
2022/11/28 10:21:46;;;;;;;17.23;9.70;;;7.10;99.90;;;;;;5059285;28;20502;-58
2022/11/28 10:24:23;;;;;;;18.50;8.90;;;7.10;99.90;;;;;;5059132;28;20486;-53
2022/11/28 10:26:52;;;;;;;20.83;10.03;;;7.20;99.90;;;;;;5057754;28;20432;-59
2022/11/28 10:29:26;;;;;;;15.20;9.63;;;7.20;99.90;;;;;;5057553;28;20444;-59
2022/11/28 10:31:55;;;;;;;16.20;8.70;;;7.10;99.90;;;;;;5058367;28;20439;-60
2022/11/28 10:34:30;;;;;;;22.03;9.57;;;7.20;99.90;;;;;;5057597;28;20499;-56
2022/11/28 10:37:03;;;;;;;15.20;8.40;;;7.10;99.90;;;;;;5057631;28;20408;-61
2022/11/28 10:39:30;;;;;;;19.13;9.03;;;7.10;99.90;;;;;;5057705;28;20420;-58
2022/11/28 10:42:13;;;;;;;17.90;9.13;;;7.10;99.90;;;;;;5057160;28;20800;-61
2022/11/28 10:45:06;;;;;;;21.60;10.37;;;7.20;99.90;;;;;;5056653;28;20493;-58
2022/11/28 10:47:58;;;;;;;16.73;8.97;;;7.20;99.90;;;;;;5056923;28;20456;-57
2022/11/28 10:50:33;;;;;;;21.50;9.33;;;7.20;99.90;;;;;;5050321;28;20452;-57
2022/11/28 10:53:10;;;;;;;21.00;8.93;;;7.20;99.90;;;;;;5057066;28;20463;-51
2022/11/28 10:55:48;;;;;;;16.40;8.20;;;7.20;99.90;;;;;;5056338;28;20440;-56
2022/11/28 10:58:23;;;;;;;15.63;8.10;;;7.20;99.90;;;;;;5056888;28;20439;-58
2022/11/28 11:00:55;;;;;;;19.90;10.83;;;7.10;99.90;;;;;;5057533;28;20412;-59
2022/11/28 11:03:28;;;;;;;17.93;9.50;;;7.20;99.90;;;;;;5057142;28;20484;-60
2022/11/28 11:05:55;;;;;;;15.07;9.53;;;7.10;99.90;;;;;;5056869;28;20503;-59
2022/11/28 11:08:24;;;;;;;17.80;8.87;;;7.10;99.90;;;;;;5056456;28;20483;-57
2022/11/28 11:10:57;;;;;;;24.40;7.93;;;7.10;99.90;;;;;;5056631;28;20450;-53
2022/11/28 11:13:26;;;;;;;24.13;9.10;;;7.10;99.90;;;;;;5056909;28;20417;-60
2022/11/28 11:16:00;;;;;;;12.07;8.00;;;7.10;99.90;;;;;;5057179;28;20475;-52
2022/11/28 11:18:29;;;;;;;17.00;8.37;;;7.10;99.90;;;;;;5057381;28;20495;-59
2022/11/28 11:21:09;;;;;;;20.17;11.30;;;7.00;99.90;;;;;;5057912;28;20434;-58
2022/11/28 11:23:36;;;;;;;18.90;9.60;;;7.10;99.90;;;;;;5057332;28;20494;-58
2022/11/28 11:26:08;;;;;;;15.87;10.50;;;7.10;99.90;;;;;;5056613;28;20769;-58
2022/11/28 11:28:49;;;;;;;22.93;10.30;;;7.20;99.90;;;;;;5056980;28;20439;-59
2022/11/28 11:31:24;;;;;;;18.07;9.27;;;7.30;99.90;;;;;;5057224;28;20482;-56
2022/11/28 11:33:53;;;;;;;17.70;8.80;;;7.40;99.90;;;;;;5056490;28;20458;-63
2022/11/28 11:36:25;;;;;;;19.70;9.00;;;7.50;99.90;;;;;;5056992;28;20440;-58
2022/11/28 11:39:05;;;;;;;18.40;8.57;;;7.50;99.90;;;;;;5056414;28;20420;-55
2022/11/28 11:41:32;;;;;;;18.77;9.20;;;7.60;99.90;;;;;;5056474;28;20523;-61
2022/11/28 11:44:28;;;;;;;19.53;9.30;;;7.60;99.90;;;;;;5055719;28;20491;-55
2022/11/28 11:46:56;;;;;;;24.63;8.70;;;7.70;99.90;;;;;;5055944;28;20452;-57
2022/11/28 11:49:32;;;;;;;16.13;8.37;;;7.70;99.90;;;;;;5050283;28;20794;-62
2022/11/28 11:52:01;;;;;;;15.87;7.80;;;7.70;99.90;;;;;;5052878;28;20447;-58
2022/11/28 11:54:28;;;;;;;13.27;8.40;;;7.70;99.90;;;;;;5049528;28;20436;-57
2022/11/28 11:56:59;;;;;;;16.10;8.53;;;7.70;99.90;;;;;;5055344;28;20432;-61
2022/11/28 11:59:33;;;;;;;22.20;10.33;;;7.80;99.90;;;;;;5044623;28;20448;-60
2022/11/28 12:02:02;;;;;;;14.00;8.10;;;7.80;99.90;;;;;;5055344;28;20475;-59
2022/11/28 12:04:37;;;;;;;12.33;7.03;;;7.70;99.90;;;;;;5052111;28;20483;-62
2022/11/28 12:07:09;;;;;;;15.40;8.00;;;7.70;99.90;;;;;;5051726;28;20432;-58
2022/11/28 12:09:41;;;;;;;11.83;7.73;;;7.70;99.90;;;;;;5055116;28;20413;-60
2022/11/28 12:12:18;;;;;;;12.10;6.13;;;7.60;99.90;;;;;;5055281;28;20447;-59
2022/11/28 12:14:48;;;;;;;24.97;12.27;;;7.80;99.90;;;;;;5055743;28;20472;-52
2022/11/28 12:17:32;;;;;;;19.57;9.47;;;8.90;99.90;;;;;;5055199;28;20447;-58
2022/11/28 12:20:25;;;;;;;17.43;8.37;;;8.80;99.90;;;;;;5055178;28;20433;-60
2022/11/28 12:23:02;;;;;;;14.37;8.50;;;8.60;99.90;;;;;;5054375;28;20519;-56
2022/11/28 12:25:37;;;;;;;22.17;9.37;;;8.50;99.90;;;;;;5054316;28;20436;-56
2022/11/28 12:28:15;;;;;;;13.97;7.27;;;8.30;99.90;;;;;;5054952;28;20439;-56
2022/11/28 12:30:56;;;;;;;18.30;7.57;;;8.20;99.90;;;;;;5054466;28;20428;-59
2022/11/28 12:33:44;;;;;;;17.53;9.03;;;8.10;99.90;;;;;;5054796;28;20463;-56
2022/11/28 12:36:17;;;;;;;17.63;7.60;;;8.10;99.90;;;;;;5054737;28;20423;-60
2022/11/28 12:38:59;;;;;;;20.90;9.50;;;8.10;99.90;;;;;;5042762;28;20425;-60
2022/11/28 12:41:56;;;;;;;31.27;12.20;;;8.10;99.90;;;;;;5050833;28;20440;-64
2022/11/28 12:44:35;;;;;;;15.40;7.97;;;8.10;99.90;;;;;;5043928;28;20472;-55
2022/11/28 12:47:14;;;;;;;16.10;9.07;;;8.10;99.90;;;;;;5054778;28;20456;-58
2022/11/28 12:49:52;;;;;;;19.67;8.60;;;8.00;99.90;;;;;;5055366;28;20440;-54
2022/11/28 12:52:29;;;;;;;18.77;9.10;;;8.00;99.90;;;;;;5055237;28;20459;-53
2022/11/28 12:55:11;;;;;;;16.53;9.30;;;8.10;99.90;;;;;;5054742;28;20440;-55
2022/11/28 12:57:45;;;;;;;17.40;8.20;;;8.10;99.90;;;;;;5049665;28;20935;-58
2022/11/28 13:00:18;;;;;;;17.63;8.73;;;8.10;99.90;;;;;;5056021;28;20424;-56
2022/11/28 13:03:00;;;;;;;18.33;9.43;;;8.00;99.90;;;;;;5055652;28;20468;-59
2022/11/28 13:05:43;;;;;;;17.57;7.47;;;8.00;99.90;;;;;;5055980;28;20474;-57
2022/11/28 13:08:39;;;;;;;19.43;10.73;;;8.00;99.90;;;;;;5043559;28;20421;-61
2022/11/28 13:11:18;;;;;;;19.10;10.43;;;8.00;99.90;;;;;;5052281;28;20480;-61